createdAt,value
2018-04-06T00:00:11.492Z,0.00
2018-04-06T00:01:11.486Z,0.00
2018-04-06T00:02:11.492Z,0.00
2018-04-06T00:03:11.475Z,0.00
2018-04-06T00:04:11.469Z,0.00
2018-04-06T00:05:11.464Z,0.00
2018-04-06T00:06:11.456Z,0.00
2018-04-06T00:07:11.451Z,0.00
2018-04-06T00:08:11.447Z,0.00
2018-04-06T00:09:11.439Z,0.00
2018-04-06T00:10:11.436Z,0.00
2018-04-06T00:11:11.429Z,0.00
2018-04-06T00:12:11.453Z,0.00
2018-04-06T00:13:11.416Z,0.00
2018-04-06T00:14:11.446Z,0.00
2018-04-06T00:15:11.410Z,0.00
2018-04-06T00:16:11.401Z,0.00
2018-04-06T00:17:11.393Z,0.00
2018-04-06T00:18:11.389Z,0.00
2018-04-06T00:19:11.382Z,0.00
2018-04-06T00:20:11.376Z,0.00
2018-04-06T00:21:11.370Z,0.00
2018-04-06T00:22:11.364Z,0.00
2018-04-06T00:23:11.365Z,0.00
2018-04-06T00:24:11.355Z,0.00
2018-04-06T00:25:11.346Z,0.00
2018-04-06T00:26:11.344Z,0.00
2018-04-06T00:27:11.338Z,0.00
2018-04-06T00:28:11.337Z,0.00
2018-04-06T00:29:11.325Z,0.00
2018-04-06T00:30:11.317Z,0.00
2018-04-06T00:31:11.313Z,0.00
2018-04-06T00:32:11.308Z,0.00
2018-04-06T00:33:11.306Z,0.00
2018-04-06T00:34:11.294Z,0.00
2018-04-06T00:35:11.303Z,0.00
2018-04-06T00:36:11.763Z,0.00
2018-04-06T00:37:11.277Z,0.00
2018-04-06T00:38:11.270Z,0.00
2018-04-06T00:39:11.266Z,0.00
2018-04-06T00:40:11.260Z,0.00
2018-04-06T00:41:11.263Z,0.00
2018-04-06T00:42:11.247Z,0.00
2018-04-06T00:43:11.241Z,0.00
2018-04-06T00:44:11.235Z,0.00
2018-04-06T00:45:11.229Z,0.00
2018-04-06T00:46:11.223Z,0.00
2018-04-06T00:47:11.216Z,0.00
2018-04-06T00:48:11.211Z,0.00
2018-04-06T00:49:11.204Z,0.00
2018-04-06T00:50:11.199Z,0.00
2018-04-06T00:51:11.193Z,0.00
2018-04-06T00:52:11.192Z,0.00
2018-04-06T00:53:11.180Z,0.00
2018-04-06T00:54:11.200Z,0.00
2018-04-06T00:55:11.170Z,0.00
2018-04-06T00:56:11.163Z,0.00
2018-04-06T00:57:11.157Z,0.00
2018-04-06T00:58:11.151Z,0.00
2018-04-06T00:59:11.149Z,0.00
2018-04-06T01:00:11.139Z,0.00
2018-04-06T01:01:11.133Z,0.00
2018-04-06T01:02:11.129Z,0.00
2018-04-06T01:03:11.122Z,0.00
2018-04-06T01:04:11.116Z,0.00
2018-04-06T01:05:11.109Z,0.00
2018-04-06T01:06:11.113Z,0.00
2018-04-06T01:07:11.098Z,0.00
2018-04-06T01:08:11.094Z,0.00
2018-04-06T01:09:11.084Z,0.00
2018-04-06T01:10:11.079Z,0.00
2018-04-06T01:11:11.073Z,0.00
2018-04-06T01:12:11.067Z,0.00
2018-04-06T01:13:11.060Z,0.00
2018-04-06T01:14:11.054Z,0.00
2018-04-06T01:15:11.048Z,0.00
2018-04-06T01:16:11.047Z,0.00
2018-04-06T01:17:11.036Z,0.00
2018-04-06T01:18:11.029Z,0.00
2018-04-06T01:19:11.022Z,0.00
2018-04-06T01:20:11.018Z,0.00
2018-04-06T01:21:11.015Z,0.00
2018-04-06T01:22:11.006Z,0.00
2018-04-06T01:23:10.999Z,0.00
2018-04-06T01:24:10.994Z,0.00
2018-04-06T01:25:10.986Z,0.00
2018-04-06T01:26:10.980Z,0.00
2018-04-06T01:27:10.977Z,0.00
2018-04-06T01:28:10.969Z,0.00
2018-04-06T01:29:10.966Z,0.00
2018-04-06T01:30:10.956Z,0.00
2018-04-06T01:31:10.949Z,0.00
2018-04-06T01:32:12.533Z,0.00
2018-04-06T01:33:10.944Z,0.00
2018-04-06T01:34:10.931Z,0.00
2018-04-06T01:35:10.925Z,0.00
2018-04-06T01:36:10.919Z,0.00
2018-04-06T01:37:10.911Z,0.00
2018-04-06T01:38:10.906Z,0.00
2018-04-06T01:39:10.899Z,0.00
2018-04-06T01:40:10.894Z,0.00
2018-04-06T01:41:10.887Z,0.00
2018-04-06T01:42:11.077Z,0.00
2018-04-06T01:43:10.876Z,0.00
2018-04-06T01:44:10.868Z,0.00
2018-04-06T01:45:10.873Z,0.00
2018-04-06T01:46:10.866Z,0.00
2018-04-06T01:47:10.851Z,0.00
2018-04-06T01:48:10.842Z,0.00
2018-04-06T01:49:10.835Z,0.00
2018-04-06T01:50:10.830Z,0.00
2018-04-06T01:51:10.822Z,0.00
2018-04-06T01:52:10.816Z,0.00
2018-04-06T01:53:10.810Z,0.00
2018-04-06T01:54:10.808Z,0.00
2018-04-06T01:55:10.797Z,0.00
2018-04-06T01:56:10.790Z,0.00
2018-04-06T01:57:10.785Z,0.00
2018-04-06T01:58:10.778Z,0.00
2018-04-06T01:59:10.771Z,0.00
2018-04-06T02:00:10.763Z,0.00
2018-04-06T02:01:10.756Z,0.00
2018-04-06T02:02:10.750Z,0.00
2018-04-06T02:03:10.745Z,0.00
2018-04-06T02:04:10.739Z,0.00
2018-04-06T02:05:10.732Z,0.00
2018-04-06T02:06:10.728Z,0.00
2018-04-06T02:07:10.717Z,0.00
2018-04-06T02:08:10.710Z,0.00
2018-04-06T02:09:10.702Z,0.00
2018-04-06T02:10:10.706Z,0.00
2018-04-06T02:11:11.072Z,0.00
2018-04-06T02:12:10.683Z,0.00
2018-04-06T02:13:10.676Z,0.00
2018-04-06T02:14:10.669Z,0.00
2018-04-06T02:15:10.662Z,0.00
2018-04-06T02:16:10.656Z,0.00
2018-04-06T02:17:10.656Z,0.00
2018-04-06T02:18:10.653Z,0.00
2018-04-06T02:19:10.638Z,0.00
2018-04-06T02:20:10.630Z,0.00
2018-04-06T02:21:10.622Z,0.00
2018-04-06T02:22:10.615Z,0.00
2018-04-06T02:23:10.608Z,0.00
2018-04-06T02:24:10.602Z,0.00
2018-04-06T02:25:10.594Z,0.00
2018-04-06T02:26:10.592Z,0.00
2018-04-06T02:27:10.583Z,0.00
2018-04-06T02:28:10.573Z,0.00
2018-04-06T02:29:10.566Z,0.00
2018-04-06T02:30:10.560Z,0.00
2018-04-06T02:31:10.554Z,0.00
2018-04-06T02:32:10.550Z,0.00
2018-04-06T02:33:10.544Z,0.00
2018-04-06T02:34:10.534Z,0.00
2018-04-06T02:35:10.525Z,0.00
2018-04-06T02:36:10.520Z,0.00
2018-04-06T02:37:10.514Z,0.00
2018-04-06T02:38:10.504Z,0.00
2018-04-06T02:39:10.496Z,0.00
2018-04-06T02:40:10.491Z,0.00
2018-04-06T02:41:10.483Z,0.00
2018-04-06T02:42:10.476Z,0.00
2018-04-06T02:43:10.470Z,0.00
2018-04-06T02:44:10.462Z,0.00
2018-04-06T02:45:10.455Z,0.00
2018-04-06T02:46:10.447Z,0.00
2018-04-06T02:47:10.445Z,0.00
2018-04-06T02:48:10.432Z,0.00
2018-04-06T02:49:10.426Z,0.00
2018-04-06T02:50:10.424Z,0.00
2018-04-06T02:51:10.413Z,0.00
2018-04-06T02:52:10.406Z,0.00
2018-04-06T02:53:10.396Z,0.00
2018-04-06T02:54:10.390Z,0.00
2018-04-06T02:55:10.385Z,0.00
2018-04-06T02:56:10.376Z,0.00
2018-04-06T02:57:10.366Z,0.00
2018-04-06T02:58:10.359Z,0.00
2018-04-06T02:59:10.353Z,0.00
2018-04-06T03:00:10.346Z,0.00
2018-04-06T03:01:10.337Z,0.00
2018-04-06T03:02:10.332Z,0.00
2018-04-06T03:03:10.334Z,0.00
2018-04-06T03:04:10.318Z,0.00
2018-04-06T03:05:10.308Z,0.00
2018-04-06T03:06:10.304Z,0.00
2018-04-06T03:07:10.295Z,0.00
2018-04-06T03:08:10.287Z,0.00
2018-04-06T03:09:10.428Z,0.00
2018-04-06T03:10:10.272Z,0.00
2018-04-06T03:11:10.264Z,0.00
2018-04-06T03:12:10.258Z,0.00
2018-04-06T03:13:10.251Z,0.00
2018-04-06T03:14:10.241Z,0.00
2018-04-06T03:15:10.233Z,0.00
2018-04-06T03:16:10.240Z,0.00
2018-04-06T03:17:10.219Z,0.00
2018-04-06T03:18:33.904Z,0.00
2018-04-06T03:19:10.202Z,0.00
2018-04-06T03:20:10.199Z,0.00
2018-04-06T03:21:10.188Z,0.00
2018-04-06T03:22:10.184Z,0.00
2018-04-06T03:23:10.175Z,0.00
2018-04-06T03:24:10.166Z,0.00
2018-04-06T03:25:10.157Z,0.00
2018-04-06T03:26:10.149Z,0.00
2018-04-06T03:27:10.145Z,0.00
2018-04-06T03:28:10.139Z,0.00
2018-04-06T03:29:10.126Z,0.00
2018-04-06T03:30:10.123Z,0.00
2018-04-06T03:31:10.114Z,0.00
2018-04-06T03:32:10.108Z,0.00
2018-04-06T03:33:10.097Z,0.00
2018-04-06T03:34:10.093Z,0.00
2018-04-06T03:35:10.082Z,0.00
2018-04-06T03:36:10.080Z,0.00
2018-04-06T03:37:10.067Z,0.00
2018-04-06T03:38:10.060Z,0.00
2018-04-06T03:39:10.052Z,0.00
2018-04-06T03:40:10.043Z,0.00
2018-04-06T03:41:10.078Z,0.00
2018-04-06T03:42:10.029Z,0.00
2018-04-06T03:43:10.022Z,0.00
2018-04-06T03:44:10.013Z,0.00
2018-04-06T03:45:10.004Z,0.00
2018-04-06T03:46:09.997Z,0.00
2018-04-06T03:47:09.989Z,0.00
2018-04-06T03:48:09.982Z,0.00
2018-04-06T03:49:09.979Z,0.00
2018-04-06T03:50:09.966Z,0.00
2018-04-06T03:51:09.958Z,0.00
2018-04-06T03:52:09.950Z,0.00
2018-04-06T03:53:09.945Z,0.00
2018-04-06T03:54:09.936Z,0.00
2018-04-06T03:55:09.927Z,0.00
2018-04-06T03:56:09.920Z,0.00
2018-04-06T03:57:09.911Z,0.00
2018-04-06T03:58:09.907Z,0.00
2018-04-06T03:59:09.896Z,0.00
2018-04-06T04:00:09.888Z,0.00
2018-04-06T04:01:09.882Z,0.00
2018-04-06T04:02:09.872Z,0.00
2018-04-06T04:03:09.864Z,0.00
2018-04-06T04:04:09.857Z,0.00
2018-04-06T04:05:09.850Z,0.00
2018-04-06T04:06:09.839Z,0.00
2018-04-06T04:07:09.832Z,0.00
2018-04-06T04:08:09.825Z,0.00
2018-04-06T04:09:09.818Z,0.00
2018-04-06T04:10:09.810Z,0.00
2018-04-06T04:11:09.802Z,0.00
2018-04-06T04:12:09.795Z,0.00
2018-04-06T04:13:09.784Z,0.00
2018-04-06T04:14:09.778Z,0.00
2018-04-06T04:15:09.769Z,0.00
2018-04-06T04:16:09.761Z,0.00
2018-04-06T04:17:09.754Z,0.00
2018-04-06T04:18:09.747Z,0.00
2018-04-06T04:19:09.744Z,0.00
2018-04-06T04:20:09.731Z,0.00
2018-04-06T04:21:09.724Z,0.00
2018-04-06T04:22:09.713Z,0.00
2018-04-06T04:23:09.705Z,0.00
2018-04-06T04:24:09.701Z,0.00
2018-04-06T04:25:09.692Z,0.00
2018-04-06T04:26:09.681Z,0.00
2018-04-06T04:27:09.673Z,0.00
2018-04-06T04:28:09.665Z,0.00
2018-04-06T04:29:09.660Z,0.00
2018-04-06T04:30:09.665Z,0.00
2018-04-06T04:31:09.641Z,0.00
2018-04-06T04:32:09.632Z,0.00
2018-04-06T04:33:09.624Z,0.00
2018-04-06T04:34:09.619Z,0.00
2018-04-06T04:35:09.610Z,0.00
2018-04-06T04:36:09.601Z,0.00
2018-04-06T04:37:09.592Z,0.00
2018-04-06T04:38:09.583Z,0.00
2018-04-06T04:39:09.576Z,0.00
2018-04-06T04:40:09.568Z,0.00
2018-04-06T04:41:09.559Z,0.00
2018-04-06T04:42:09.552Z,0.00
2018-04-06T04:43:09.543Z,5.63
2018-04-06T04:44:09.541Z,5.63
2018-04-06T04:45:09.528Z,5.63
2018-04-06T04:46:09.519Z,5.63
2018-04-06T04:47:09.513Z,5.63
2018-04-06T04:48:09.502Z,5.63
2018-04-06T04:49:09.495Z,5.63
2018-04-06T04:50:09.486Z,5.63
2018-04-06T04:51:09.480Z,5.63
2018-04-06T04:52:09.484Z,5.63
2018-04-06T04:53:09.461Z,11.25
2018-04-06T04:54:09.457Z,11.25
2018-04-06T04:55:09.447Z,11.25
2018-04-06T04:56:09.442Z,11.25
2018-04-06T04:57:09.432Z,11.25
2018-04-06T04:58:09.421Z,16.88
2018-04-06T04:59:09.418Z,16.88
2018-04-06T05:00:09.410Z,16.88
2018-04-06T05:01:09.398Z,22.50
2018-04-06T05:02:09.388Z,22.50
2018-04-06T05:03:09.427Z,22.50
2018-04-06T05:04:09.373Z,28.13
2018-04-06T05:05:09.364Z,28.13
2018-04-06T05:06:09.360Z,28.13
2018-04-06T05:07:09.349Z,33.75
2018-04-06T05:08:09.341Z,33.75
2018-04-06T05:09:09.334Z,33.75
2018-04-06T05:10:09.327Z,39.38
2018-04-06T05:11:09.315Z,39.38
2018-04-06T05:12:09.311Z,39.38
2018-04-06T05:13:09.303Z,39.38
2018-04-06T05:14:09.301Z,39.38
2018-04-06T05:15:09.285Z,45.00
2018-04-06T05:16:09.304Z,45.00
2018-04-06T05:17:09.290Z,45.00
2018-04-06T05:18:09.261Z,45.00
2018-04-06T05:19:09.255Z,50.63
2018-04-06T05:20:09.248Z,50.63
2018-04-06T05:21:09.240Z,56.25
2018-04-06T05:22:09.232Z,56.25
2018-04-06T05:23:09.224Z,56.25
2018-04-06T05:24:09.215Z,61.88
2018-04-06T05:25:09.205Z,61.88
2018-04-06T05:26:09.199Z,67.50
2018-04-06T05:27:09.202Z,67.50
2018-04-06T05:28:09.183Z,67.50
2018-04-06T05:29:09.183Z,73.13
2018-04-06T05:30:09.169Z,73.13
2018-04-06T05:31:09.162Z,78.75
2018-04-06T05:32:09.153Z,78.75
2018-04-06T05:33:09.143Z,84.38
2018-04-06T05:34:09.136Z,84.38
2018-04-06T05:35:09.128Z,90.00
2018-04-06T05:36:09.124Z,90.00
2018-04-06T05:37:09.116Z,90.00
2018-04-06T05:38:09.106Z,95.63
2018-04-06T05:39:09.100Z,95.63
2018-04-06T05:40:09.098Z,95.63
2018-04-06T05:41:09.084Z,101.25
2018-04-06T05:42:09.116Z,101.25
2018-04-06T05:43:09.069Z,101.25
2018-04-06T05:44:09.062Z,101.25
2018-04-06T05:45:09.053Z,101.25
2018-04-06T05:46:09.048Z,106.88
2018-04-06T05:47:09.040Z,106.88
2018-04-06T05:48:09.032Z,106.88
2018-04-06T05:49:09.023Z,106.88
2018-04-06T05:50:09.017Z,106.88
2018-04-06T05:51:09.008Z,106.88
2018-04-06T05:52:09.003Z,112.50
2018-04-06T05:53:09.023Z,112.50
2018-04-06T05:54:08.989Z,112.50
2018-04-06T05:55:08.978Z,112.50
2018-04-06T05:56:08.972Z,112.50
2018-04-06T05:57:08.962Z,112.50
2018-04-06T05:58:08.956Z,112.50
2018-04-06T05:59:08.948Z,106.88
2018-04-06T06:00:08.946Z,101.25
2018-04-06T06:01:08.936Z,101.25
2018-04-06T06:02:08.925Z,95.63
2018-04-06T06:03:08.920Z,90.00
2018-04-06T06:04:08.916Z,84.38
2018-04-06T06:05:08.903Z,78.75
2018-04-06T06:06:08.903Z,67.50
2018-04-06T06:07:08.900Z,67.50
2018-04-06T06:08:08.883Z,61.88
2018-04-06T06:09:08.873Z,56.25
2018-04-06T06:10:08.867Z,50.63
2018-04-06T06:11:08.860Z,50.63
2018-04-06T06:12:08.852Z,45.00
2018-04-06T06:13:08.845Z,45.00
2018-04-06T06:14:08.837Z,45.00
2018-04-06T06:15:08.830Z,45.00
2018-04-06T06:16:08.825Z,39.38
2018-04-06T06:17:08.818Z,39.38
2018-04-06T06:18:08.807Z,39.38
2018-04-06T06:19:08.799Z,39.38
2018-04-06T06:20:08.793Z,39.38
2018-04-06T06:21:08.784Z,39.38
2018-04-06T06:22:08.781Z,39.38
2018-04-06T06:23:08.768Z,39.38
2018-04-06T06:24:08.762Z,39.38
2018-04-06T06:25:08.754Z,39.38
2018-04-06T06:26:08.746Z,39.38
2018-04-06T06:27:08.738Z,45.00
2018-04-06T06:28:08.731Z,39.38
2018-04-06T06:29:08.774Z,39.38
2018-04-06T06:30:08.716Z,39.38
2018-04-06T06:31:08.708Z,39.38
2018-04-06T06:32:08.703Z,39.38
2018-04-06T06:33:08.695Z,39.38
2018-04-06T06:34:08.685Z,39.38
2018-04-06T06:35:08.677Z,39.38
2018-04-06T06:36:08.673Z,39.38
2018-04-06T06:37:08.659Z,39.38
2018-04-06T06:38:08.679Z,39.38
2018-04-06T06:39:08.649Z,39.38
2018-04-06T06:40:08.643Z,39.38
2018-04-06T06:41:08.642Z,39.38
2018-04-06T06:42:08.623Z,39.38
2018-04-06T06:43:08.627Z,39.38
2018-04-06T06:44:08.609Z,39.38
2018-04-06T06:45:08.599Z,45.00
2018-04-06T06:46:08.595Z,39.38
2018-04-06T06:47:08.582Z,39.38
2018-04-06T06:48:08.589Z,39.38
2018-04-06T06:49:08.566Z,39.38
2018-04-06T06:50:08.560Z,39.38
2018-04-06T06:51:08.553Z,45.00
2018-04-06T06:52:08.545Z,45.00
2018-04-06T06:53:08.538Z,45.00
2018-04-06T06:54:08.531Z,45.00
2018-04-06T06:55:08.523Z,45.00
2018-04-06T06:56:08.519Z,45.00
2018-04-06T06:57:08.506Z,45.00
2018-04-06T06:58:08.499Z,45.00
2018-04-06T06:59:08.495Z,45.00
2018-04-06T07:00:08.484Z,45.00
2018-04-06T07:01:08.476Z,45.00
2018-04-06T07:02:08.467Z,45.00
2018-04-06T07:03:08.463Z,45.00
2018-04-06T07:04:08.454Z,45.00
2018-04-06T07:05:08.445Z,45.00
2018-04-06T07:06:08.438Z,45.00
2018-04-06T07:07:08.430Z,45.00
2018-04-06T07:08:08.424Z,45.00
2018-04-06T07:09:08.415Z,45.00
2018-04-06T07:10:08.411Z,45.00
2018-04-06T07:11:08.400Z,45.00
2018-04-06T07:12:08.392Z,45.00
2018-04-06T07:13:08.385Z,45.00
2018-04-06T07:14:08.413Z,45.00
2018-04-06T07:15:08.375Z,45.00
2018-04-06T07:16:08.365Z,45.00
2018-04-06T07:17:08.355Z,45.00
2018-04-06T07:18:08.356Z,45.00
2018-04-06T07:19:08.340Z,45.00
2018-04-06T07:20:08.334Z,45.00
2018-04-06T07:21:08.325Z,45.00
2018-04-06T07:22:08.320Z,45.00
2018-04-06T07:23:08.395Z,45.00
2018-04-06T07:24:08.631Z,45.00
2018-04-06T07:25:08.295Z,45.00
2018-04-06T07:26:08.318Z,45.00
2018-04-06T07:27:08.295Z,45.00
2018-04-06T07:28:08.273Z,45.00
2018-04-06T07:29:08.266Z,50.63
2018-04-06T07:30:08.281Z,45.00
2018-04-06T07:31:08.262Z,50.63
2018-04-06T07:32:08.247Z,45.00
2018-04-06T07:33:08.237Z,45.00
2018-04-06T07:34:08.229Z,45.00
2018-04-06T07:35:08.321Z,45.00
2018-04-06T07:36:08.230Z,45.00
2018-04-06T07:37:09.590Z,45.00
2018-04-06T07:38:09.684Z,45.00
2018-04-06T07:39:08.195Z,45.00
2018-04-06T07:40:08.190Z,45.00
2018-04-06T07:41:08.180Z,45.00
2018-04-06T07:42:08.174Z,45.00
2018-04-06T07:43:08.168Z,45.00
2018-04-06T07:44:08.164Z,45.00
2018-04-06T07:45:08.154Z,45.00
2018-04-06T07:46:08.147Z,45.00
2018-04-06T07:47:08.143Z,45.00
2018-04-06T07:48:08.137Z,45.00
2018-04-06T07:49:08.128Z,50.63
2018-04-06T07:50:08.135Z,50.63
2018-04-06T07:51:08.113Z,50.63
2018-04-06T07:52:08.107Z,50.63
2018-04-06T07:53:08.100Z,50.63
2018-04-06T07:54:08.093Z,50.63
2018-04-06T07:55:08.086Z,50.63
2018-04-06T07:56:08.080Z,50.63
2018-04-06T07:57:08.073Z,50.63
2018-04-06T07:58:08.067Z,56.25
2018-04-06T07:59:08.060Z,56.25
2018-04-06T08:00:08.055Z,56.25
2018-04-06T08:01:08.047Z,56.25
2018-04-06T08:02:08.039Z,56.25
2018-04-06T08:03:08.039Z,56.25
2018-04-06T08:04:08.030Z,56.25
2018-04-06T08:05:08.026Z,56.25
2018-04-06T08:06:08.015Z,56.25
2018-04-06T08:07:08.296Z,61.88
2018-04-06T08:08:08.004Z,61.88
2018-04-06T08:09:08.053Z,61.88
2018-04-06T08:10:07.996Z,61.88
2018-04-06T08:11:07.982Z,56.25
2018-04-06T08:12:07.978Z,56.25
2018-04-06T08:13:07.970Z,61.88
2018-04-06T08:14:07.972Z,61.88
2018-04-06T08:15:07.962Z,61.88
2018-04-06T08:16:07.952Z,61.88
2018-04-06T08:17:07.946Z,61.88
2018-04-06T08:18:07.941Z,67.50
2018-04-06T08:19:07.935Z,67.50
2018-04-06T08:20:07.931Z,67.50
2018-04-06T08:21:07.922Z,73.13
2018-04-06T08:22:07.921Z,73.13
2018-04-06T08:23:07.911Z,73.13
2018-04-06T08:24:07.908Z,78.75
2018-04-06T08:25:07.902Z,78.75
2018-04-06T08:26:07.910Z,78.75
2018-04-06T08:27:07.887Z,78.75
2018-04-06T08:28:07.883Z,78.75
2018-04-06T08:29:07.879Z,78.75
2018-04-06T08:30:07.871Z,78.75
2018-04-06T08:31:07.864Z,78.75
2018-04-06T08:32:07.860Z,73.13
2018-04-06T08:33:07.851Z,73.13
2018-04-06T08:34:07.853Z,73.13
2018-04-06T08:35:07.853Z,67.50
2018-04-06T08:36:07.837Z,67.50
2018-04-06T08:37:07.830Z,67.50
2018-04-06T08:38:07.833Z,67.50
2018-04-06T08:39:07.822Z,67.50
2018-04-06T08:40:07.815Z,67.50
2018-04-06T08:41:07.815Z,67.50
2018-04-06T08:42:07.804Z,67.50
2018-04-06T08:43:07.813Z,67.50
2018-04-06T08:44:07.802Z,67.50
2018-04-06T08:45:07.787Z,61.88
2018-04-06T08:46:07.798Z,61.88
2018-04-06T08:47:07.777Z,61.88
2018-04-06T08:48:07.840Z,61.88
2018-04-06T08:49:07.768Z,61.88
2018-04-06T08:50:07.764Z,61.88
2018-04-06T08:51:07.757Z,61.88
2018-04-06T08:52:07.753Z,67.50
2018-04-06T08:53:07.748Z,67.50
2018-04-06T08:54:07.741Z,67.50
2018-04-06T08:55:07.736Z,67.50
2018-04-06T08:56:07.731Z,67.50
2018-04-06T08:57:07.726Z,67.50
2018-04-06T08:58:07.724Z,67.50
2018-04-06T08:59:07.716Z,67.50
2018-04-06T09:00:07.713Z,67.50
2018-04-06T09:01:07.707Z,67.50
2018-04-06T09:02:07.702Z,67.50
2018-04-06T09:03:07.697Z,61.88
2018-04-06T09:04:07.692Z,61.88
2018-04-06T09:05:07.698Z,61.88
2018-04-06T09:06:07.682Z,61.88
2018-04-06T09:07:07.703Z,61.88
2018-04-06T09:08:07.673Z,61.88
2018-04-06T09:09:07.667Z,61.88
2018-04-06T09:10:07.662Z,61.88
2018-04-06T09:11:07.662Z,61.88
2018-04-06T09:12:07.657Z,61.88
2018-04-06T09:13:07.655Z,61.88
2018-04-06T09:14:07.643Z,61.88
2018-04-06T09:15:07.640Z,61.88
2018-04-06T09:16:07.639Z,61.88
2018-04-06T09:17:07.630Z,61.88
2018-04-06T09:18:07.630Z,61.88
2018-04-06T09:19:07.620Z,61.88
2018-04-06T09:20:07.642Z,61.88
2018-04-06T09:21:07.617Z,61.88
2018-04-06T09:22:07.609Z,61.88
2018-04-06T09:23:07.602Z,61.88
2018-04-06T09:24:07.601Z,61.88
2018-04-06T09:25:07.592Z,61.88
2018-04-06T09:26:07.588Z,61.88
2018-04-06T09:27:07.589Z,61.88
2018-04-06T09:28:07.592Z,61.88
2018-04-06T09:29:07.573Z,61.88
2018-04-06T09:30:07.577Z,61.88
2018-04-06T09:31:07.567Z,61.88
2018-04-06T09:32:07.561Z,61.88
2018-04-06T09:33:07.556Z,61.88
2018-04-06T09:34:07.562Z,61.88
2018-04-06T09:35:07.547Z,61.88
2018-04-06T09:36:07.543Z,61.88
2018-04-06T09:37:07.538Z,61.88
2018-04-06T09:38:07.535Z,61.88
2018-04-06T09:39:07.533Z,61.88
2018-04-06T09:40:07.526Z,61.88
2018-04-06T09:41:07.523Z,61.88
2018-04-06T09:42:07.516Z,61.88
2018-04-06T09:43:07.523Z,61.88
2018-04-06T09:44:07.510Z,67.50
2018-04-06T09:45:07.502Z,67.50
2018-04-06T09:46:07.500Z,67.50
2018-04-06T09:47:07.497Z,67.50
2018-04-06T09:48:07.492Z,67.50
2018-04-06T09:49:07.489Z,67.50
2018-04-06T09:50:07.484Z,67.50
2018-04-06T09:51:07.481Z,67.50
2018-04-06T09:52:07.476Z,67.50
2018-04-06T09:53:07.471Z,67.50
2018-04-06T09:54:07.465Z,67.50
2018-04-06T09:55:07.463Z,67.50
2018-04-06T09:56:07.457Z,67.50
2018-04-06T09:57:07.453Z,67.50
2018-04-06T09:58:07.449Z,67.50
2018-04-06T09:59:07.447Z,67.50
2018-04-06T10:00:07.452Z,67.50
2018-04-06T10:01:07.440Z,67.50
2018-04-06T10:02:07.434Z,67.50
2018-04-06T10:03:07.455Z,67.50
2018-04-06T10:04:07.425Z,67.50
2018-04-06T10:05:07.422Z,67.50
2018-04-06T10:06:07.426Z,67.50
2018-04-06T10:07:07.413Z,67.50
2018-04-06T10:08:07.409Z,67.50
2018-04-06T10:09:07.409Z,67.50
2018-04-06T10:10:07.409Z,67.50
2018-04-06T10:11:07.396Z,67.50
2018-04-06T10:12:07.394Z,67.50
2018-04-06T10:13:07.391Z,67.50
2018-04-06T10:14:07.384Z,67.50
2018-04-06T10:15:07.384Z,67.50
2018-04-06T10:16:07.379Z,67.50
2018-04-06T10:17:07.376Z,67.50
2018-04-06T10:18:07.372Z,67.50
2018-04-06T10:19:07.365Z,73.13
2018-04-06T10:20:07.367Z,73.13
2018-04-06T10:21:07.378Z,73.13
2018-04-06T10:22:07.362Z,73.13
2018-04-06T10:23:07.352Z,73.13
2018-04-06T10:24:07.350Z,67.50
2018-04-06T10:25:07.348Z,67.50
2018-04-06T10:26:07.341Z,67.50
2018-04-06T10:27:07.337Z,67.50
2018-04-06T10:28:07.384Z,67.50
2018-04-06T10:29:07.326Z,67.50
2018-04-06T10:30:07.324Z,67.50
2018-04-06T10:31:07.323Z,67.50
2018-04-06T10:32:07.319Z,67.50
2018-04-06T10:33:07.314Z,67.50
2018-04-06T10:34:07.319Z,67.50
2018-04-06T10:35:07.309Z,67.50
2018-04-06T10:36:07.305Z,67.50
2018-04-06T10:37:07.299Z,67.50
2018-04-06T10:38:07.294Z,67.50
2018-04-06T10:39:07.291Z,67.50
2018-04-06T10:40:07.288Z,67.50
2018-04-06T10:41:07.285Z,67.50
2018-04-06T10:42:07.282Z,67.50
2018-04-06T10:43:07.276Z,67.50
2018-04-06T10:44:07.275Z,67.50
2018-04-06T10:45:07.267Z,67.50
2018-04-06T10:46:07.264Z,67.50
2018-04-06T10:47:07.268Z,67.50
2018-04-06T10:48:07.258Z,67.50
2018-04-06T10:49:07.256Z,67.50
2018-04-06T10:50:07.253Z,73.13
2018-04-06T10:51:07.248Z,67.50
2018-04-06T10:52:07.245Z,67.50
2018-04-06T10:53:07.250Z,67.50
2018-04-06T10:54:07.236Z,67.50
2018-04-06T10:55:07.233Z,67.50
2018-04-06T10:56:07.232Z,67.50
2018-04-06T10:57:07.239Z,67.50
2018-04-06T10:58:07.224Z,67.50
2018-04-06T10:59:07.221Z,67.50
2018-04-06T11:00:07.219Z,67.50
2018-04-06T11:01:07.214Z,67.50
2018-04-06T11:02:07.209Z,67.50
2018-04-06T11:03:07.208Z,67.50
2018-04-06T11:04:07.202Z,67.50
2018-04-06T11:05:07.210Z,67.50
2018-04-06T11:06:07.199Z,67.50
2018-04-06T11:07:07.203Z,67.50
2018-04-06T11:08:07.190Z,67.50
2018-04-06T11:09:07.189Z,67.50
2018-04-06T11:10:07.229Z,67.50
2018-04-06T11:11:07.183Z,67.50
2018-04-06T11:12:07.179Z,67.50
2018-04-06T11:13:07.176Z,73.13
2018-04-06T11:14:07.175Z,73.13
2018-04-06T11:15:07.169Z,73.13
2018-04-06T11:16:07.181Z,73.13
2018-04-06T11:17:07.216Z,67.50
2018-04-06T11:18:07.159Z,67.50
2018-04-06T11:19:07.187Z,67.50
2018-04-06T11:20:07.152Z,67.50
2018-04-06T11:21:07.149Z,67.50
2018-04-06T11:22:07.168Z,67.50
2018-04-06T11:23:07.187Z,67.50
2018-04-06T11:24:07.149Z,67.50
2018-04-06T11:25:07.136Z,67.50
2018-04-06T11:26:07.133Z,67.50
2018-04-06T11:27:07.131Z,67.50
2018-04-06T11:28:07.129Z,67.50
2018-04-06T11:29:07.124Z,67.50
2018-04-06T11:30:07.121Z,67.50
2018-04-06T11:31:07.124Z,67.50
2018-04-06T11:32:07.135Z,67.50
2018-04-06T11:33:07.113Z,67.50
2018-04-06T11:34:07.110Z,67.50
2018-04-06T11:35:07.114Z,67.50
2018-04-06T11:36:07.106Z,67.50
2018-04-06T11:37:07.106Z,67.50
2018-04-06T11:38:07.099Z,67.50
2018-04-06T11:39:07.097Z,67.50
2018-04-06T11:40:07.101Z,67.50
2018-04-06T11:41:07.120Z,67.50
2018-04-06T11:42:07.092Z,67.50
2018-04-06T11:43:07.085Z,67.50
2018-04-06T11:44:07.112Z,67.50
2018-04-06T11:45:07.086Z,67.50
2018-04-06T11:46:07.078Z,67.50
2018-04-06T11:47:07.075Z,67.50
2018-04-06T11:48:07.075Z,67.50
2018-04-06T11:49:07.080Z,67.50
2018-04-06T11:50:07.067Z,67.50
2018-04-06T11:51:07.066Z,67.50
2018-04-06T11:52:07.062Z,67.50
2018-04-06T11:53:07.058Z,67.50
2018-04-06T11:54:07.067Z,67.50
2018-04-06T11:55:07.052Z,67.50
2018-04-06T11:56:07.051Z,67.50
2018-04-06T11:57:07.047Z,67.50
2018-04-06T11:58:07.044Z,67.50
2018-04-06T11:59:07.044Z,67.50
2018-04-06T12:00:07.041Z,67.50
2018-04-06T12:01:07.038Z,67.50
2018-04-06T12:02:07.035Z,67.50
2018-04-06T12:03:07.039Z,67.50
2018-04-06T12:04:07.030Z,67.50
2018-04-06T12:05:07.072Z,67.50
2018-04-06T12:06:07.025Z,67.50
2018-04-06T12:07:07.023Z,67.50
2018-04-06T12:08:07.020Z,67.50
2018-04-06T12:09:07.019Z,67.50
2018-04-06T12:10:07.024Z,67.50
2018-04-06T12:11:07.017Z,67.50
2018-04-06T12:12:07.011Z,67.50
2018-04-06T12:13:07.026Z,67.50
2018-04-06T12:14:07.011Z,67.50
2018-04-06T12:15:07.003Z,67.50
2018-04-06T12:16:07.007Z,67.50
2018-04-06T12:17:07.017Z,67.50
2018-04-06T12:18:07.003Z,67.50
2018-04-06T12:19:07.008Z,67.50
2018-04-06T12:20:06.995Z,67.50
2018-04-06T12:21:06.990Z,67.50
2018-04-06T12:22:06.993Z,67.50
2018-04-06T12:23:07.031Z,67.50
2018-04-06T12:24:06.985Z,67.50
2018-04-06T12:25:07.101Z,67.50
2018-04-06T12:26:06.982Z,67.50
2018-04-06T12:27:06.989Z,67.50
2018-04-06T12:28:06.984Z,67.50
2018-04-06T12:29:06.982Z,67.50
2018-04-06T12:30:07.048Z,67.50
2018-04-06T12:31:06.971Z,67.50
2018-04-06T12:32:07.155Z,67.50
2018-04-06T12:33:06.962Z,67.50
2018-04-06T12:34:06.961Z,67.50
2018-04-06T12:35:07.080Z,67.50
2018-04-06T12:36:06.963Z,67.50
2018-04-06T12:37:07.121Z,67.50
2018-04-06T12:38:06.976Z,67.50
2018-04-06T12:39:06.952Z,67.50
2018-04-06T12:40:06.961Z,67.50
2018-04-06T12:41:06.980Z,67.50
2018-04-06T12:42:06.945Z,67.50
2018-04-06T12:43:06.975Z,67.50
2018-04-06T12:44:07.096Z,67.50
2018-04-06T12:45:06.939Z,67.50
2018-04-06T12:46:06.985Z,67.50
2018-04-06T12:47:06.940Z,67.50
2018-04-06T12:48:06.935Z,67.50
2018-04-06T12:49:06.928Z,67.50
2018-04-06T12:50:06.930Z,67.50
2018-04-06T12:51:06.928Z,67.50
2018-04-06T12:52:06.924Z,67.50
2018-04-06T12:53:06.922Z,67.50
2018-04-06T12:54:06.922Z,67.50
2018-04-06T12:55:06.921Z,67.50
2018-04-06T12:56:06.919Z,67.50
2018-04-06T12:57:06.913Z,67.50
2018-04-06T12:58:06.912Z,67.50
2018-04-06T12:59:06.911Z,67.50
2018-04-06T13:00:06.914Z,67.50
2018-04-06T13:01:06.962Z,67.50